sensor_id;sensor_type;location;lat;lon;timestamp;P1;durP1;ratioP1;P2;durP2;ratioP2
54177;SDS011;40085;53.004;6.770;2023-11-22T00:01:24;2.63;;;2.17;;
54177;SDS011;40085;53.004;6.770;2023-11-22T00:03:51;3.95;;;2.03;;
54177;SDS011;40085;53.004;6.770;2023-11-22T00:06:17;2.20;;;2.00;;
54177;SDS011;40085;53.004;6.770;2023-11-22T00:08:45;2.63;;;2.42;;
54177;SDS011;40085;53.004;6.770;2023-11-22T00:11:12;2.28;;;2.08;;
54177;SDS011;40085;53.004;6.770;2023-11-22T00:13:41;7.35;;;2.28;;
54177;SDS011;40085;53.004;6.770;2023-11-22T00:16:07;2.10;;;1.95;;
54177;SDS011;40085;53.004;6.770;2023-11-22T00:18:34;1.92;;;1.80;;
54177;SDS011;40085;53.004;6.770;2023-11-22T00:21:02;2.30;;;2.05;;
54177;SDS011;40085;53.004;6.770;2023-11-22T00:23:28;2.30;;;2.10;;
54177;SDS011;40085;53.004;6.770;2023-11-22T00:25:55;2.00;;;1.88;;
54177;SDS011;40085;53.004;6.770;2023-11-22T00:28:24;2.17;;;1.98;;
54177;SDS011;40085;53.004;6.770;2023-11-22T00:30:50;2.50;;;2.30;;
54177;SDS011;40085;53.004;6.770;2023-11-22T00:33:16;2.38;;;2.15;;
54177;SDS011;40085;53.004;6.770;2023-11-22T00:35:45;2.08;;;1.90;;
54177;SDS011;40085;53.004;6.770;2023-11-22T00:38:11;4.72;;;2.08;;
54177;SDS011;40085;53.004;6.770;2023-11-22T00:40:37;2.75;;;2.47;;
54177;SDS011;40085;53.004;6.770;2023-11-22T00:43:03;4.97;;;2.65;;
54177;SDS011;40085;53.004;6.770;2023-11-22T00:45:29;2.58;;;2.35;;
54177;SDS011;40085;53.004;6.770;2023-11-22T00:47:55;2.20;;;2.00;;
54177;SDS011;40085;53.004;6.770;2023-11-22T00:50:21;2.70;;;2.40;;
54177;SDS011;40085;53.004;6.770;2023-11-22T00:52:47;1.95;;;1.85;;
54177;SDS011;40085;53.004;6.770;2023-11-22T00:55:13;3.03;;;2.15;;
54177;SDS011;40085;53.004;6.770;2023-11-22T00:57:39;2.88;;;1.77;;
54177;SDS011;40085;53.004;6.770;2023-11-22T01:00:05;1.92;;;1.83;;
54177;SDS011;40085;53.004;6.770;2023-11-22T01:02:36;2.03;;;1.83;;
54177;SDS011;40085;53.004;6.770;2023-11-22T01:05:07;3.10;;;2.47;;
54177;SDS011;40085;53.004;6.770;2023-11-22T01:07:37;2.17;;;1.98;;
54177;SDS011;40085;53.004;6.770;2023-11-22T01:10:03;2.30;;;2.10;;
54177;SDS011;40085;53.004;6.770;2023-11-22T01:12:30;1.98;;;1.88;;
54177;SDS011;40085;53.004;6.770;2023-11-22T01:14:56;2.53;;;2.33;;
54177;SDS011;40085;53.004;6.770;2023-11-22T01:17:22;1.95;;;1.77;;
54177;SDS011;40085;53.004;6.770;2023-11-22T01:19:48;2.65;;;2.30;;
54177;SDS011;40085;53.004;6.770;2023-11-22T01:22:15;2.35;;;2.15;;
54177;SDS011;40085;53.004;6.770;2023-11-22T01:24:42;2.35;;;2.15;;
54177;SDS011;40085;53.004;6.770;2023-11-22T01:27:08;2.25;;;2.05;;
54177;SDS011;40085;53.004;6.770;2023-11-22T01:29:33;3.35;;;2.20;;
54177;SDS011;40085;53.004;6.770;2023-11-22T01:32:00;2.15;;;1.95;;
54177;SDS011;40085;53.004;6.770;2023-11-22T01:34:26;2.40;;;2.20;;
54177;SDS011;40085;53.004;6.770;2023-11-22T01:36:51;2.03;;;1.92;;
54177;SDS011;40085;53.004;6.770;2023-11-22T01:39:17;2.60;;;2.20;;
54177;SDS011;40085;53.004;6.770;2023-11-22T01:41:45;3.38;;;2.42;;
54177;SDS011;40085;53.004;6.770;2023-11-22T01:44:14;2.03;;;1.90;;
54177;SDS011;40085;53.004;6.770;2023-11-22T01:46:41;2.10;;;2.00;;
54177;SDS011;40085;53.004;6.770;2023-11-22T01:49:08;3.15;;;2.03;;
54177;SDS011;40085;53.004;6.770;2023-11-22T01:51:35;2.03;;;1.83;;
54177;SDS011;40085;53.004;6.770;2023-11-22T01:54:06;2.97;;;2.67;;
54177;SDS011;40085;53.004;6.770;2023-11-22T01:56:35;2.13;;;1.92;;
54177;SDS011;40085;53.004;6.770;2023-11-22T01:59:02;2.30;;;2.10;;
54177;SDS011;40085;53.004;6.770;2023-11-22T02:01:29;2.15;;;1.98;;
54177;SDS011;40085;53.004;6.770;2023-11-22T02:03:55;2.75;;;2.25;;
54177;SDS011;40085;53.004;6.770;2023-11-22T02:06:21;2.28;;;2.03;;
54177;SDS011;40085;53.004;6.770;2023-11-22T02:08:47;2.25;;;2.05;;
54177;SDS011;40085;53.004;6.770;2023-11-22T02:11:13;2.35;;;2.15;;
54177;SDS011;40085;53.004;6.770;2023-11-22T02:13:46;2.30;;;2.10;;
54177;SDS011;40085;53.004;6.770;2023-11-22T02:16:15;2.30;;;2.10;;
54177;SDS011;40085;53.004;6.770;2023-11-22T02:18:43;2.30;;;2.10;;
54177;SDS011;40085;53.004;6.770;2023-11-22T02:21:10;3.78;;;2.17;;
54177;SDS011;40085;53.004;6.770;2023-11-22T02:23:36;2.13;;;1.92;;
54177;SDS011;40085;53.004;6.770;2023-11-22T02:26:01;2.17;;;2.03;;
54177;SDS011;40085;53.004;6.770;2023-11-22T02:28:27;2.42;;;2.22;;
54177;SDS011;40085;53.004;6.770;2023-11-22T02:30:53;2.25;;;2.05;;
54177;SDS011;40085;53.004;6.770;2023-11-22T02:33:19;4.07;;;2.15;;
54177;SDS011;40085;53.004;6.770;2023-11-22T02:35:45;2.45;;;2.25;;
54177;SDS011;40085;53.004;6.770;2023-11-22T02:38:11;2.20;;;1.98;;
54177;SDS011;40085;53.004;6.770;2023-11-22T02:40:36;2.45;;;2.25;;
54177;SDS011;40085;53.004;6.770;2023-11-22T02:43:02;2.28;;;2.08;;
54177;SDS011;40085;53.004;6.770;2023-11-22T02:45:32;2.38;;;2.17;;
54177;SDS011;40085;53.004;6.770;2023-11-22T02:47:58;2.22;;;2.03;;
54177;SDS011;40085;53.004;6.770;2023-11-22T02:50:26;2.33;;;2.13;;
54177;SDS011;40085;53.004;6.770;2023-11-22T02:52:52;2.38;;;2.15;;
54177;SDS011;40085;53.004;6.770;2023-11-22T02:55:18;3.08;;;2.40;;
54177;SDS011;40085;53.004;6.770;2023-11-22T02:57:44;2.33;;;2.13;;
54177;SDS011;40085;53.004;6.770;2023-11-22T03:00:10;2.58;;;2.33;;
54177;SDS011;40085;53.004;6.770;2023-11-22T03:02:40;2.85;;;2.13;;
54177;SDS011;40085;53.004;6.770;2023-11-22T03:05:07;2.20;;;2.00;;
54177;SDS011;40085;53.004;6.770;2023-11-22T03:07:34;2.30;;;2.10;;
54177;SDS011;40085;53.004;6.770;2023-11-22T03:10:01;1.98;;;1.88;;
54177;SDS011;40085;53.004;6.770;2023-11-22T03:12:27;2.97;;;2.40;;
54177;SDS011;40085;53.004;6.770;2023-11-22T03:14:53;2.05;;;1.83;;
54177;SDS011;40085;53.004;6.770;2023-11-22T03:17:23;2.55;;;2.35;;
54177;SDS011;40085;53.004;6.770;2023-11-22T03:19:49;3.50;;;2.10;;
54177;SDS011;40085;53.004;6.770;2023-11-22T03:22:15;2.35;;;2.15;;
54177;SDS011;40085;53.004;6.770;2023-11-22T03:24:40;2.40;;;2.20;;
54177;SDS011;40085;53.004;6.770;2023-11-22T03:27:06;2.50;;;2.30;;
54177;SDS011;40085;53.004;6.770;2023-11-22T03:29:32;2.13;;;2.00;;
54177;SDS011;40085;53.004;6.770;2023-11-22T03:31:58;2.30;;;2.10;;
54177;SDS011;40085;53.004;6.770;2023-11-22T03:34:24;2.40;;;2.20;;
54177;SDS011;40085;53.004;6.770;2023-11-22T03:36:49;2.47;;;2.28;;
54177;SDS011;40085;53.004;6.770;2023-11-22T03:39:15;2.10;;;1.90;;
54177;SDS011;40085;53.004;6.770;2023-11-22T03:41:41;2.22;;;2.03;;
54177;SDS011;40085;53.004;6.770;2023-11-22T03:44:08;2.53;;;2.17;;
54177;SDS011;40085;53.004;6.770;2023-11-22T03:46:37;2.45;;;2.22;;
54177;SDS011;40085;53.004;6.770;2023-11-22T03:49:03;2.08;;;1.90;;
54177;SDS011;40085;53.004;6.770;2023-11-22T03:51:31;3.10;;;2.30;;
54177;SDS011;40085;53.004;6.770;2023-11-22T03:53:57;1.80;;;1.70;;
54177;SDS011;40085;53.004;6.770;2023-11-22T03:56:23;2.58;;;1.98;;
54177;SDS011;40085;53.004;6.770;2023-11-22T03:58:48;2.42;;;2.22;;
54177;SDS011;40085;53.004;6.770;2023-11-22T04:01:14;2.28;;;2.05;;
54177;SDS011;40085;53.004;6.770;2023-11-22T04:03:41;2.35;;;2.15;;
54177;SDS011;40085;53.004;6.770;2023-11-22T04:06:07;2.38;;;2.17;;
54177;SDS011;40085;53.004;6.770;2023-11-22T04:08:32;3.42;;;2.20;;
54177;SDS011;40085;53.004;6.770;2023-11-22T04:10:58;2.58;;;2.38;;
54177;SDS011;40085;53.004;6.770;2023-11-22T04:13:23;2.47;;;2.28;;
54177;SDS011;40085;53.004;6.770;2023-11-22T04:15:50;2.50;;;2.28;;
54177;SDS011;40085;53.004;6.770;2023-11-22T04:18:16;1.92;;;1.80;;
54177;SDS011;40085;53.004;6.770;2023-11-22T04:20:41;2.63;;;2.42;;
54177;SDS011;40085;53.004;6.770;2023-11-22T04:23:07;2.10;;;1.90;;
54177;SDS011;40085;53.004;6.770;2023-11-22T04:25:36;2.63;;;2.42;;
54177;SDS011;40085;53.004;6.770;2023-11-22T04:28:02;2.50;;;2.30;;
54177;SDS011;40085;53.004;6.770;2023-11-22T04:30:28;2.50;;;2.30;;
54177;SDS011;40085;53.004;6.770;2023-11-22T04:32:54;2.53;;;2.33;;
54177;SDS011;40085;53.004;6.770;2023-11-22T04:35:19;2.38;;;2.17;;
54177;SDS011;40085;53.004;6.770;2023-11-22T04:37:45;2.80;;;2.38;;
54177;SDS011;40085;53.004;6.770;2023-11-22T04:40:12;2.78;;;2.25;;
54177;SDS011;40085;53.004;6.770;2023-11-22T04:42:39;2.10;;;1.90;;
54177;SDS011;40085;53.004;6.770;2023-11-22T04:45:05;2.60;;;2.40;;
54177;SDS011;40085;53.004;6.770;2023-11-22T04:47:32;2.15;;;1.98;;
54177;SDS011;40085;53.004;6.770;2023-11-22T04:49:58;3.30;;;3.00;;
54177;SDS011;40085;53.004;6.770;2023-11-22T04:52:24;2.90;;;2.13;;
54177;SDS011;40085;53.004;6.770;2023-11-22T04:54:51;2.83;;;2.58;;
54177;SDS011;40085;53.004;6.770;2023-11-22T04:57:17;3.05;;;2.75;;
54177;SDS011;40085;53.004;6.770;2023-11-22T04:59:43;2.28;;;2.08;;
54177;SDS011;40085;53.004;6.770;2023-11-22T05:02:09;2.35;;;2.15;;
54177;SDS011;40085;53.004;6.770;2023-11-22T05:04:36;2.53;;;2.33;;
54177;SDS011;40085;53.004;6.770;2023-11-22T05:07:02;2.65;;;2.45;;
54177;SDS011;40085;53.004;6.770;2023-11-22T05:09:28;3.00;;;2.67;;
54177;SDS011;40085;53.004;6.770;2023-11-22T05:11:54;2.50;;;2.30;;
54177;SDS011;40085;53.004;6.770;2023-11-22T05:14:20;2.83;;;2.55;;
54177;SDS011;40085;53.004;6.770;2023-11-22T05:16:46;2.55;;;2.35;;
54177;SDS011;40085;53.004;6.770;2023-11-22T05:19:12;2.58;;;2.08;;
54177;SDS011;40085;53.004;6.770;2023-11-22T05:21:38;2.55;;;2.25;;
54177;SDS011;40085;53.004;6.770;2023-11-22T05:24:04;2.55;;;2.28;;
54177;SDS011;40085;53.004;6.770;2023-11-22T05:26:32;2.83;;;2.13;;
54177;SDS011;40085;53.004;6.770;2023-11-22T05:28:58;2.53;;;2.25;;
54177;SDS011;40085;53.004;6.770;2023-11-22T05:31:24;2.97;;;2.78;;
54177;SDS011;40085;53.004;6.770;2023-11-22T05:33:50;2.33;;;2.13;;
54177;SDS011;40085;53.004;6.770;2023-11-22T05:36:16;2.85;;;2.65;;
54177;SDS011;40085;53.004;6.770;2023-11-22T05:38:42;2.80;;;2.55;;
54177;SDS011;40085;53.004;6.770;2023-11-22T05:41:08;3.58;;;2.88;;
54177;SDS011;40085;53.004;6.770;2023-11-22T05:43:34;4.60;;;2.55;;
54177;SDS011;40085;53.004;6.770;2023-11-22T05:46:02;3.33;;;3.03;;
54177;SDS011;40085;53.004;6.770;2023-11-22T05:48:28;3.42;;;2.75;;
54177;SDS011;40085;53.004;6.770;2023-11-22T05:50:54;2.67;;;2.45;;
54177;SDS011;40085;53.004;6.770;2023-11-22T05:53:20;2.55;;;2.30;;
54177;SDS011;40085;53.004;6.770;2023-11-22T05:55:47;3.22;;;2.72;;
54177;SDS011;40085;53.004;6.770;2023-11-22T05:58:16;2.38;;;2.17;;
54177;SDS011;40085;53.004;6.770;2023-11-22T06:00:46;3.30;;;2.53;;
54177;SDS011;40085;53.004;6.770;2023-11-22T06:03:12;2.65;;;2.45;;
54177;SDS011;40085;53.004;6.770;2023-11-22T06:05:38;3.42;;;3.08;;
54177;SDS011;40085;53.004;6.770;2023-11-22T06:08:05;3.13;;;2.83;;
54177;SDS011;40085;53.004;6.770;2023-11-22T06:10:31;3.20;;;2.90;;
54177;SDS011;40085;53.004;6.770;2023-11-22T06:12:57;4.15;;;2.92;;
54177;SDS011;40085;53.004;6.770;2023-11-22T06:15:23;2.80;;;2.53;;
54177;SDS011;40085;53.004;6.770;2023-11-22T06:17:49;5.22;;;3.22;;
54177;SDS011;40085;53.004;6.770;2023-11-22T06:20:15;3.00;;;2.60;;
54177;SDS011;40085;53.004;6.770;2023-11-22T06:22:41;2.92;;;2.72;;
54177;SDS011;40085;53.004;6.770;2023-11-22T06:27:33;2.75;;;2.55;;
54177;SDS011;40085;53.004;6.770;2023-11-22T06:30:00;3.38;;;3.03;;
54177;SDS011;40085;53.004;6.770;2023-11-22T06:32:26;3.30;;;3.00;;
54177;SDS011;40085;53.004;6.770;2023-11-22T06:34:52;3.33;;;3.03;;
54177;SDS011;40085;53.004;6.770;2023-11-22T06:37:18;3.10;;;2.80;;
54177;SDS011;40085;53.004;6.770;2023-11-22T06:39:43;2.85;;;2.63;;
54177;SDS011;40085;53.004;6.770;2023-11-22T06:42:09;3.67;;;2.92;;
54177;SDS011;40085;53.004;6.770;2023-11-22T06:44:35;2.80;;;2.60;;
54177;SDS011;40085;53.004;6.770;2023-11-22T06:47:02;3.33;;;3.03;;
54177;SDS011;40085;53.004;6.770;2023-11-22T06:49:28;2.95;;;2.65;;
54177;SDS011;40085;53.004;6.770;2023-11-22T06:51:54;3.45;;;3.10;;
54177;SDS011;40085;53.004;6.770;2023-11-22T06:54:20;2.70;;;2.50;;
54177;SDS011;40085;53.004;6.770;2023-11-22T06:56:46;4.00;;;3.42;;
54177;SDS011;40085;53.004;6.770;2023-11-22T06:59:12;4.03;;;3.63;;
54177;SDS011;40085;53.004;6.770;2023-11-22T07:01:38;3.22;;;2.92;;
54177;SDS011;40085;53.004;6.770;2023-11-22T07:04:04;3.88;;;3.58;;
54177;SDS011;40085;53.004;6.770;2023-11-22T07:06:31;4.20;;;3.13;;
54177;SDS011;40085;53.004;6.770;2023-11-22T07:08:57;3.25;;;2.95;;
54177;SDS011;40085;53.004;6.770;2023-11-22T07:11:24;3.42;;;3.13;;
54177;SDS011;40085;53.004;6.770;2023-11-22T07:13:51;3.30;;;3.00;;
54177;SDS011;40085;53.004;6.770;2023-11-22T07:16:17;3.00;;;2.70;;
54177;SDS011;40085;53.004;6.770;2023-11-22T07:18:45;4.35;;;3.95;;
54177;SDS011;40085;53.004;6.770;2023-11-22T07:21:11;3.50;;;3.08;;
54177;SDS011;40085;53.004;6.770;2023-11-22T07:23:37;3.58;;;3.28;;
54177;SDS011;40085;53.004;6.770;2023-11-22T07:26:03;4.35;;;3.10;;
54177;SDS011;40085;53.004;6.770;2023-11-22T07:28:31;3.72;;;3.38;;
54177;SDS011;40085;53.004;6.770;2023-11-22T07:30:56;3.50;;;3.20;;
54177;SDS011;40085;53.004;6.770;2023-11-22T07:33:23;3.72;;;3.42;;
54177;SDS011;40085;53.004;6.770;2023-11-22T07:35:51;3.80;;;3.45;;
54177;SDS011;40085;53.004;6.770;2023-11-22T07:38:17;3.50;;;3.20;;
54177;SDS011;40085;53.004;6.770;2023-11-22T07:40:42;5.13;;;3.28;;
54177;SDS011;40085;53.004;6.770;2023-11-22T07:43:08;3.67;;;3.25;;
54177;SDS011;40085;53.004;6.770;2023-11-22T07:45:34;3.50;;;3.20;;
54177;SDS011;40085;53.004;6.770;2023-11-22T07:47:59;3.88;;;3.50;;
54177;SDS011;40085;53.004;6.770;2023-11-22T07:50:26;3.78;;;3.47;;
54177;SDS011;40085;53.004;6.770;2023-11-22T07:52:52;3.60;;;3.30;;
54177;SDS011;40085;53.004;6.770;2023-11-22T07:55:18;4.05;;;3.72;;
54177;SDS011;40085;53.004;6.770;2023-11-22T07:57:44;3.88;;;3.47;;
54177;SDS011;40085;53.004;6.770;2023-11-22T08:00:10;3.72;;;3.17;;
54177;SDS011;40085;53.004;6.770;2023-11-22T08:02:37;3.03;;;2.80;;
54177;SDS011;40085;53.004;6.770;2023-11-22T08:05:06;3.67;;;3.38;;
54177;SDS011;40085;53.004;6.770;2023-11-22T08:10:04;3.65;;;3.35;;
54177;SDS011;40085;53.004;6.770;2023-11-22T08:12:35;3.70;;;3.40;;
54177;SDS011;40085;53.004;6.770;2023-11-22T08:15:02;3.42;;;3.10;;
54177;SDS011;40085;53.004;6.770;2023-11-22T08:17:29;3.28;;;2.97;;
54177;SDS011;40085;53.004;6.770;2023-11-22T08:19:57;3.88;;;3.03;;
54177;SDS011;40085;53.004;6.770;2023-11-22T08:22:24;3.72;;;3.33;;
54177;SDS011;40085;53.004;6.770;2023-11-22T08:24:53;3.50;;;3.20;;
54177;SDS011;40085;53.004;6.770;2023-11-22T08:27:20;3.55;;;3.25;;
54177;SDS011;40085;53.004;6.770;2023-11-22T08:29:46;3.08;;;2.88;;
54177;SDS011;40085;53.004;6.770;2023-11-22T08:32:13;3.28;;;2.97;;
54177;SDS011;40085;53.004;6.770;2023-11-22T08:34:38;3.33;;;3.03;;
54177;SDS011;40085;53.004;6.770;2023-11-22T08:37:04;3.20;;;2.95;;
54177;SDS011;40085;53.004;6.770;2023-11-22T08:39:30;3.05;;;2.75;;
54177;SDS011;40085;53.004;6.770;2023-11-22T08:41:57;2.90;;;2.70;;
54177;SDS011;40085;53.004;6.770;2023-11-22T08:44:23;3.60;;;3.30;;
54177;SDS011;40085;53.004;6.770;2023-11-22T08:46:49;3.83;;;3.33;;
54177;SDS011;40085;53.004;6.770;2023-11-22T08:49:15;3.08;;;2.80;;
54177;SDS011;40085;53.004;6.770;2023-11-22T08:51:42;3.42;;;3.03;;
54177;SDS011;40085;53.004;6.770;2023-11-22T08:54:08;3.45;;;3.15;;
54177;SDS011;40085;53.004;6.770;2023-11-22T08:56:34;2.63;;;2.42;;
54177;SDS011;40085;53.004;6.770;2023-11-22T08:59:00;3.42;;;3.00;;
54177;SDS011;40085;53.004;6.770;2023-11-22T09:01:26;4.43;;;3.22;;
54177;SDS011;40085;53.004;6.770;2023-11-22T09:03:52;3.30;;;3.00;;
54177;SDS011;40085;53.004;6.770;2023-11-22T09:06:18;3.22;;;2.92;;
54177;SDS011;40085;53.004;6.770;2023-11-22T09:08:44;3.75;;;2.95;;
54177;SDS011;40085;53.004;6.770;2023-11-22T09:11:11;2.90;;;2.67;;
54177;SDS011;40085;53.004;6.770;2023-11-22T09:13:38;2.80;;;2.60;;
54177;SDS011;40085;53.004;6.770;2023-11-22T09:16:05;3.05;;;2.80;;
54177;SDS011;40085;53.004;6.770;2023-11-22T09:18:31;3.17;;;2.88;;
54177;SDS011;40085;53.004;6.770;2023-11-22T09:20:57;3.15;;;2.95;;
54177;SDS011;40085;53.004;6.770;2023-11-22T09:23:23;2.58;;;2.38;;
54177;SDS011;40085;53.004;6.770;2023-11-22T09:25:51;3.13;;;2.83;;
54177;SDS011;40085;53.004;6.770;2023-11-22T09:28:17;2.75;;;2.55;;
54177;SDS011;40085;53.004;6.770;2023-11-22T09:30:44;2.88;;;2.50;;
54177;SDS011;40085;53.004;6.770;2023-11-22T09:33:16;2.83;;;2.63;;
54177;SDS011;40085;53.004;6.770;2023-11-22T09:35:43;2.92;;;2.70;;
54177;SDS011;40085;53.004;6.770;2023-11-22T09:38:11;2.85;;;2.63;;
54177;SDS011;40085;53.004;6.770;2023-11-22T09:40:47;3.40;;;3.10;;
54177;SDS011;40085;53.004;6.770;2023-11-22T09:43:14;3.42;;;3.13;;
54177;SDS011;40085;53.004;6.770;2023-11-22T09:45:45;3.58;;;2.90;;
54177;SDS011;40085;53.004;6.770;2023-11-22T09:48:19;2.80;;;2.60;;
54177;SDS011;40085;53.004;6.770;2023-11-22T09:53:25;2.67;;;2.47;;
54177;SDS011;40085;53.004;6.770;2023-11-22T09:55:58;2.72;;;2.53;;
54177;SDS011;40085;53.004;6.770;2023-11-22T09:58:27;3.72;;;3.38;;
54177;SDS011;40085;53.004;6.770;2023-11-22T10:00:56;3.05;;;2.75;;
54177;SDS011;40085;53.004;6.770;2023-11-22T10:03:22;3.53;;;3.22;;
54177;SDS011;40085;53.004;6.770;2023-11-22T10:05:49;2.83;;;2.55;;
54177;SDS011;40085;53.004;6.770;2023-11-22T10:08:17;3.53;;;3.22;;
54177;SDS011;40085;53.004;6.770;2023-11-22T10:10:43;3.05;;;2.75;;
54177;SDS011;40085;53.004;6.770;2023-11-22T10:13:12;3.20;;;2.90;;
54177;SDS011;40085;53.004;6.770;2023-11-22T10:15:38;2.90;;;2.60;;
54177;SDS011;40085;53.004;6.770;2023-11-22T10:18:04;3.53;;;3.22;;
54177;SDS011;40085;53.004;6.770;2023-11-22T10:20:41;3.08;;;2.78;;
54177;SDS011;40085;53.004;6.770;2023-11-22T10:23:14;3.25;;;2.95;;
54177;SDS011;40085;53.004;6.770;2023-11-22T10:28:11;3.05;;;2.78;;
54177;SDS011;40085;53.004;6.770;2023-11-22T10:30:37;3.08;;;2.78;;
54177;SDS011;40085;53.004;6.770;2023-11-22T10:33:05;2.65;;;2.42;;
54177;SDS011;40085;53.004;6.770;2023-11-22T10:35:31;2.70;;;2.50;;
54177;SDS011;40085;53.004;6.770;2023-11-22T10:37:58;3.30;;;2.88;;
54177;SDS011;40085;53.004;6.770;2023-11-22T10:40:28;3.20;;;2.90;;
54177;SDS011;40085;53.004;6.770;2023-11-22T10:42:54;2.90;;;2.67;;
54177;SDS011;40085;53.004;6.770;2023-11-22T10:45:21;2.65;;;2.45;;
54177;SDS011;40085;53.004;6.770;2023-11-22T10:47:49;4.53;;;3.45;;
54177;SDS011;40085;53.004;6.770;2023-11-22T10:50:15;3.30;;;3.08;;
54177;SDS011;40085;53.004;6.770;2023-11-22T10:52:41;4.00;;;3.60;;
54177;SDS011;40085;53.004;6.770;2023-11-22T10:55:11;3.42;;;3.13;;
54177;SDS011;40085;53.004;6.770;2023-11-22T10:57:43;3.63;;;3.33;;
54177;SDS011;40085;53.004;6.770;2023-11-22T11:00:13;3.38;;;3.08;;
54177;SDS011;40085;53.004;6.770;2023-11-22T11:02:41;3.88;;;2.95;;
54177;SDS011;40085;53.004;6.770;2023-11-22T11:05:15;3.30;;;2.83;;
54177;SDS011;40085;53.004;6.770;2023-11-22T11:07:48;2.90;;;2.70;;
54177;SDS011;40085;53.004;6.770;2023-11-22T11:10:19;2.75;;;2.35;;
54177;SDS011;40085;53.004;6.770;2023-11-22T11:12:47;3.17;;;2.92;;
54177;SDS011;40085;53.004;6.770;2023-11-22T11:15:13;2.90;;;2.63;;
54177;SDS011;40085;53.004;6.770;2023-11-22T11:17:42;3.20;;;2.90;;
54177;SDS011;40085;53.004;6.770;2023-11-22T11:20:10;2.85;;;2.53;;
54177;SDS011;40085;53.004;6.770;2023-11-22T11:22:38;2.95;;;2.75;;
54177;SDS011;40085;53.004;6.770;2023-11-22T11:25:04;3.28;;;2.97;;
54177;SDS011;40085;53.004;6.770;2023-11-22T11:27:33;2.53;;;2.33;;
54177;SDS011;40085;53.004;6.770;2023-11-22T11:32:57;2.63;;;2.42;;
54177;SDS011;40085;53.004;6.770;2023-11-22T11:35:37;3.75;;;2.63;;
54177;SDS011;40085;53.004;6.770;2023-11-22T11:38:12;3.08;;;2.22;;
54177;SDS011;40085;53.004;6.770;2023-11-22T11:40:39;2.20;;;1.92;;
54177;SDS011;40085;53.004;6.770;2023-11-22T11:43:06;2.30;;;2.10;;
54177;SDS011;40085;53.004;6.770;2023-11-22T11:45:50;2.22;;;2.03;;
54177;SDS011;40085;53.004;6.770;2023-11-22T11:48:18;1.70;;;1.60;;
54177;SDS011;40085;53.004;6.770;2023-11-22T11:50:45;1.55;;;1.45;;
54177;SDS011;40085;53.004;6.770;2023-11-22T11:53:11;1.80;;;1.70;;
54177;SDS011;40085;53.004;6.770;2023-11-22T11:55:37;1.67;;;1.55;;
54177;SDS011;40085;53.004;6.770;2023-11-22T11:58:04;1.55;;;1.45;;
54177;SDS011;40085;53.004;6.770;2023-11-22T12:00:32;1.75;;;1.65;;
54177;SDS011;40085;53.004;6.770;2023-11-22T12:02:58;1.58;;;1.48;;
54177;SDS011;40085;53.004;6.770;2023-11-22T12:05:24;1.70;;;1.60;;
54177;SDS011;40085;53.004;6.770;2023-11-22T12:07:50;1.50;;;1.40;;
54177;SDS011;40085;53.004;6.770;2023-11-22T12:10:15;1.73;;;1.63;;
54177;SDS011;40085;53.004;6.770;2023-11-22T12:12:42;1.50;;;1.40;;
54177;SDS011;40085;53.004;6.770;2023-11-22T12:15:09;2.38;;;1.65;;
54177;SDS011;40085;53.004;6.770;2023-11-22T12:17:35;1.40;;;1.30;;
54177;SDS011;40085;53.004;6.770;2023-11-22T12:20:14;1.50;;;1.40;;
54177;SDS011;40085;53.004;6.770;2023-11-22T12:22:42;1.77;;;1.67;;
54177;SDS011;40085;53.004;6.770;2023-11-22T12:25:11;1.67;;;1.58;;
54177;SDS011;40085;53.004;6.770;2023-11-22T12:27:38;1.90;;;1.80;;
54177;SDS011;40085;53.004;6.770;2023-11-22T12:30:05;1.63;;;1.52;;
54177;SDS011;40085;53.004;6.770;2023-11-22T12:32:32;1.95;;;1.58;;
54177;SDS011;40085;53.004;6.770;2023-11-22T12:34:57;1.77;;;1.67;;
54177;SDS011;40085;53.004;6.770;2023-11-22T12:37:23;1.77;;;1.30;;
54177;SDS011;40085;53.004;6.770;2023-11-22T12:39:50;1.88;;;1.77;;
54177;SDS011;40085;53.004;6.770;2023-11-22T12:42:17;1.48;;;1.38;;
54177;SDS011;40085;53.004;6.770;2023-11-22T12:44:47;1.60;;;1.50;;
54177;SDS011;40085;53.004;6.770;2023-11-22T12:47:14;1.75;;;1.65;;
54177;SDS011;40085;53.004;6.770;2023-11-22T12:49:44;2.45;;;1.40;;
54177;SDS011;40085;53.004;6.770;2023-11-22T12:52:14;1.58;;;1.48;;
54177;SDS011;40085;53.004;6.770;2023-11-22T12:54:40;2.28;;;1.60;;
54177;SDS011;40085;53.004;6.770;2023-11-22T12:57:10;1.60;;;1.50;;
54177;SDS011;40085;53.004;6.770;2023-11-22T12:59:37;2.10;;;1.80;;
54177;SDS011;40085;53.004;6.770;2023-11-22T13:02:05;1.77;;;1.67;;
54177;SDS011;40085;53.004;6.770;2023-11-22T13:04:32;1.70;;;1.60;;
54177;SDS011;40085;53.004;6.770;2023-11-22T13:06:58;1.63;;;1.52;;
54177;SDS011;40085;53.004;6.770;2023-11-22T13:09:25;1.65;;;1.55;;
54177;SDS011;40085;53.004;6.770;2023-11-22T13:11:51;1.60;;;1.50;;
54177;SDS011;40085;53.004;6.770;2023-11-22T13:14:17;1.95;;;1.50;;
54177;SDS011;40085;53.004;6.770;2023-11-22T13:16:43;1.85;;;1.40;;
54177;SDS011;40085;53.004;6.770;2023-11-22T13:19:10;1.23;;;1.13;;
54177;SDS011;40085;53.004;6.770;2023-11-22T13:21:36;1.60;;;1.50;;
54177;SDS011;40085;53.004;6.770;2023-11-22T13:24:02;1.65;;;1.55;;
54177;SDS011;40085;53.004;6.770;2023-11-22T13:26:29;1.60;;;1.50;;
54177;SDS011;40085;53.004;6.770;2023-11-22T13:28:55;1.35;;;1.23;;
54177;SDS011;40085;53.004;6.770;2023-11-22T13:31:21;1.52;;;1.42;;
54177;SDS011;40085;53.004;6.770;2023-11-22T13:33:46;1.45;;;1.35;;
54177;SDS011;40085;53.004;6.770;2023-11-22T13:36:12;1.50;;;1.40;;
54177;SDS011;40085;53.004;6.770;2023-11-22T13:38:39;1.50;;;1.40;;
54177;SDS011;40085;53.004;6.770;2023-11-22T13:41:05;1.25;;;1.15;;
54177;SDS011;40085;53.004;6.770;2023-11-22T13:43:31;1.60;;;1.50;;
54177;SDS011;40085;53.004;6.770;2023-11-22T13:45:58;1.92;;;1.77;;
54177;SDS011;40085;53.004;6.770;2023-11-22T13:48:24;1.58;;;1.48;;
54177;SDS011;40085;53.004;6.770;2023-11-22T13:50:50;1.80;;;1.70;;
54177;SDS011;40085;53.004;6.770;2023-11-22T13:53:16;1.50;;;1.40;;
54177;SDS011;40085;53.004;6.770;2023-11-22T13:55:46;1.65;;;1.55;;
54177;SDS011;40085;53.004;6.770;2023-11-22T13:58:12;1.40;;;1.30;;
54177;SDS011;40085;53.004;6.770;2023-11-22T14:00:38;1.83;;;1.60;;
54177;SDS011;40085;53.004;6.770;2023-11-22T14:03:04;1.70;;;1.60;;
54177;SDS011;40085;53.004;6.770;2023-11-22T14:05:33;1.45;;;1.35;;
54177;SDS011;40085;53.004;6.770;2023-11-22T14:08:01;1.30;;;1.20;;
54177;SDS011;40085;53.004;6.770;2023-11-22T14:10:27;1.50;;;1.30;;
54177;SDS011;40085;53.004;6.770;2023-11-22T14:12:53;1.90;;;1.60;;
54177;SDS011;40085;53.004;6.770;2023-11-22T14:15:19;1.20;;;1.10;;
54177;SDS011;40085;53.004;6.770;2023-11-22T14:17:45;1.90;;;1.80;;
54177;SDS011;40085;53.004;6.770;2023-11-22T14:20:14;1.60;;;1.50;;
54177;SDS011;40085;53.004;6.770;2023-11-22T14:22:41;1.70;;;1.60;;
54177;SDS011;40085;53.004;6.770;2023-11-22T14:25:08;1.13;;;1.13;;
54177;SDS011;40085;53.004;6.770;2023-11-22T14:27:39;1.50;;;1.40;;
54177;SDS011;40085;53.004;6.770;2023-11-22T14:30:06;2.20;;;1.38;;
54177;SDS011;40085;53.004;6.770;2023-11-22T14:32:33;1.30;;;1.20;;
54177;SDS011;40085;53.004;6.770;2023-11-22T14:35:00;1.70;;;1.60;;
54177;SDS011;40085;53.004;6.770;2023-11-22T14:37:27;2.17;;;1.48;;
54177;SDS011;40085;53.004;6.770;2023-11-22T14:39:54;2.08;;;1.88;;
54177;SDS011;40085;53.004;6.770;2023-11-22T14:42:19;1.80;;;1.65;;
54177;SDS011;40085;53.004;6.770;2023-11-22T14:44:45;1.75;;;1.48;;
54177;SDS011;40085;53.004;6.770;2023-11-22T14:47:11;1.90;;;1.80;;
54177;SDS011;40085;53.004;6.770;2023-11-22T14:49:47;1.60;;;1.50;;
54177;SDS011;40085;53.004;6.770;2023-11-22T14:52:16;1.60;;;1.50;;
54177;SDS011;40085;53.004;6.770;2023-11-22T14:54:43;1.70;;;1.60;;
54177;SDS011;40085;53.004;6.770;2023-11-22T14:57:11;1.48;;;1.38;;
54177;SDS011;40085;53.004;6.770;2023-11-22T14:59:40;2.42;;;1.55;;